Portada
METAR-TAF:

METAR-TAF

Aeropuertos :

Aeropuerto Internacional Diori Hamani

Niamey, Níger

latitud: 13-29N, longitud: 002-10E, altitud: 223 m

Observación

El informe se hizo hace 16 minutos, a las 07:00 UTC
Viento 5 kt del suroeste
Temperatura 25°C
Humedad 100%
Presión 1012 hPa
Visibilidad: 8000 m
Escasas nubes a una altura de 1600 ft

METAR: DRRN 210700Z 22005KT 8000 FEW016 25/25 Q1012 BECMG 4500 SHRA BKN012

Hora: 08:16 (07:16 UTC)

Pronóstico

El informe se hizo hace 2 horas y 16 minutos, a las 05:00 UTC
Pronóstico válido del 21 a las 06 UTC al 22 a las 12 UTC
Viento 8 kt del suroeste
Visibilidad 10 km o más
Nubes dispersas a una altura de 2000 ft

TAF: DRRN 210500Z 2106/2212 22008KT 9999 SCT020

Observaciones y pronósticos meteorológicos de más de 4000 aeropuertos (mensajes METAR y TAF).

Los puntos amarillos y rojos representan las estaciones disponibles.

Ponga el ratón en el punto deseado para ver el nombre de la estación.

Haga clic para ver las observaciones y los pronósticos meteorológicos.

Para cambiar el mapa : haga clic en los botones verdes con una cruz de color negro para hacer un zoom, en el botón verde con un guión para alejar o en las flechas verdes para mapas adyacentes.


METAR-TAF: